SBI5011 ESGG-EFHK
Flight info
| Callsign | SBI5011 |
|---|---|
| Flight time | 1h 13m |
| Altitude | 37000 |
| Route | LABAN Y430 TINKA DCT TUSNI DCT RIKUM DCT RIRIP Y364 LAKUT |
| Aircraft | A321/M-SDE3FGHIRWY/LB1 |
Departure
| Time | 2026-04-20 16:29 |
|---|---|
| Airport | Göteborg Landvetter Airport (ESGG) |
Arrival
| Time | 2026-04-20 17:42 |
|---|---|
| Airport | Helsinki Vantaa Airport (EFHK) |
| Time | Latitude | Longitude | Altitude | Speed | Heading |
|---|---|---|---|---|---|
| 2026-04-20 15:55 | 57.66677 | 12.29230 | 526 ft | 0 kts | 116° |
| 2026-04-20 16:13 | 57.66680 | 12.29221 | 526 ft | 2 kts | 115° |
| 2026-04-20 16:14 | 57.66687 | 12.29193 | 526 ft | 2 kts | 114° |
| 2026-04-20 16:14 | 57.66693 | 12.29165 | 526 ft | 2 kts | 108° |
| 2026-04-20 16:14 | 57.66698 | 12.29136 | 525 ft | 2 kts | 100° |
| 2026-04-20 16:14 | 57.66700 | 12.29105 | 525 ft | 2 kts | 63° |
| 2026-04-20 16:15 | 57.66692 | 12.29089 | 525 ft | 1 kts | 28° |
| 2026-04-20 16:15 | 57.66691 | 12.29088 | 525 ft | 0 kts | 28° |
| 2026-04-20 16:19 | 57.66692 | 12.29090 | 525 ft | 1 kts | 28° |
| 2026-04-20 16:19 | 57.66712 | 12.29109 | 526 ft | 5 kts | 27° |
| 2026-04-20 16:20 | 57.66747 | 12.29133 | 526 ft | 4 kts | 360° |
| 2026-04-20 16:20 | 57.66769 | 12.29101 | 526 ft | 4 kts | 311° |
| 2026-04-20 16:20 | 57.66788 | 12.29047 | 526 ft | 6 kts | 299° |
| 2026-04-20 16:20 | 57.66808 | 12.28971 | 526 ft | 7 kts | 295° |
| 2026-04-20 16:21 | 57.66825 | 12.28876 | 526 ft | 8 kts | 275° |
| 2026-04-20 16:21 | 57.66788 | 12.28786 | 525 ft | 10 kts | 212° |
| 2026-04-20 16:21 | 57.66718 | 12.28723 | 525 ft | 12 kts | 205° |
| 2026-04-20 16:21 | 57.66641 | 12.28653 | 524 ft | 13 kts | 206° |
| 2026-04-20 16:22 | 57.66553 | 12.28574 | 523 ft | 15 kts | 206° |
| 2026-04-20 16:22 | 57.66453 | 12.28483 | 522 ft | 17 kts | 206° |
| 2026-04-20 16:22 | 57.66349 | 12.28389 | 521 ft | 16 kts | 205° |
| 2026-04-20 16:22 | 57.66246 | 12.28294 | 520 ft | 17 kts | 206° |
| 2026-04-20 16:23 | 57.66139 | 12.28196 | 518 ft | 17 kts | 206° |
| 2026-04-20 16:23 | 57.66028 | 12.28096 | 517 ft | 18 kts | 206° |
| 2026-04-20 16:23 | 57.65915 | 12.27993 | 516 ft | 18 kts | 206° |
| 2026-04-20 16:23 | 57.65804 | 12.27893 | 515 ft | 17 kts | 206° |
| 2026-04-20 16:24 | 57.65698 | 12.27795 | 514 ft | 17 kts | 206° |
| 2026-04-20 16:24 | 57.65595 | 12.27699 | 513 ft | 18 kts | 206° |
| 2026-04-20 16:24 | 57.65453 | 12.27568 | 514 ft | 25 kts | 207° |
| 2026-04-20 16:24 | 57.65300 | 12.27425 | 512 ft | 24 kts | 206° |
| 2026-04-20 16:25 | 57.65154 | 12.27290 | 511 ft | 22 kts | 206° |
| 2026-04-20 16:25 | 57.65031 | 12.27176 | 509 ft | 18 kts | 206° |
| 2026-04-20 16:25 | 57.64919 | 12.27076 | 508 ft | 14 kts | 206° |
| 2026-04-20 16:25 | 57.64876 | 12.26966 | 507 ft | 10 kts | 273° |
| 2026-04-20 16:26 | 57.64886 | 12.26927 | 507 ft | 0 kts | 316° |
| 2026-04-20 16:27 | 57.64889 | 12.26922 | 510 ft | 3 kts | 316° |
| 2026-04-20 16:27 | 57.64931 | 12.26861 | 507 ft | 11 kts | 330° |
| 2026-04-20 16:27 | 57.64996 | 12.26834 | 509 ft | 8 kts | 357° |
| 2026-04-20 16:28 | 57.65033 | 12.26844 | 510 ft | 0 kts | 25° |
| 2026-04-20 16:28 | 57.65193 | 12.26989 | 512 ft | 61 kts | 26° |
| 2026-04-20 16:28 | 57.65773 | 12.27516 | 514 ft | 120 kts | 26° |
| 2026-04-20 16:29 | 57.66661 | 12.28321 | 596 ft | 157 kts | 26° |
| 2026-04-20 16:29 | 57.67638 | 12.29195 | 1201 ft | 154 kts | 27° |
| 2026-04-20 16:29 | 57.68671 | 12.30139 | 1579 ft | 176 kts | 28° |
| 2026-04-20 16:29 | 57.69838 | 12.31216 | 1898 ft | 198 kts | 28° |
| 2026-04-20 16:30 | 57.71002 | 12.32867 | 2200 ft | 224 kts | 45° |
| 2026-04-20 16:30 | 57.72098 | 12.35102 | 2845 ft | 237 kts | 50° |
| 2026-04-20 16:30 | 57.73163 | 12.37477 | 3780 ft | 239 kts | 51° |
| 2026-04-20 16:30 | 57.74235 | 12.39899 | 4698 ft | 243 kts | 51° |
| 2026-04-20 16:31 | 57.75330 | 12.42333 | 5604 ft | 247 kts | 51° |
| 2026-04-20 16:31 | 57.76454 | 12.44778 | 6533 ft | 248 kts | 51° |
| 2026-04-20 16:31 | 57.77598 | 12.47234 | 7372 ft | 252 kts | 51° |
| 2026-04-20 16:31 | 57.78763 | 12.49704 | 8227 ft | 254 kts | 50° |
| 2026-04-20 16:32 | 57.79957 | 12.52181 | 9041 ft | 258 kts | 49° |
| 2026-04-20 16:32 | 57.81173 | 12.54681 | 9853 ft | 261 kts | 49° |
| 2026-04-20 16:32 | 57.82408 | 12.57213 | 10590 ft | 268 kts | 48° |
| 2026-04-20 16:32 | 57.83714 | 12.59899 | 10825 ft | 290 kts | 49° |
| 2026-04-20 16:33 | 57.85127 | 12.62815 | 11003 ft | 313 kts | 48° |
| 2026-04-20 16:33 | 57.86627 | 12.65908 | 11450 ft | 325 kts | 48° |
| 2026-04-20 16:33 | 57.88160 | 12.69071 | 12132 ft | 329 kts | 48° |
| 2026-04-20 16:33 | 57.89708 | 12.72274 | 12856 ft | 333 kts | 48° |
| 2026-04-20 16:34 | 57.91270 | 12.75512 | 13590 ft | 337 kts | 49° |
| 2026-04-20 16:34 | 57.92833 | 12.78753 | 14290 ft | 340 kts | 49° |
| 2026-04-20 16:34 | 57.94428 | 12.82065 | 14953 ft | 343 kts | 49° |
| 2026-04-20 16:34 | 57.96040 | 12.85421 | 15296 ft | 346 kts | 49° |
| 2026-04-20 16:35 | 57.97648 | 12.88778 | 15399 ft | 346 kts | 49° |
| 2026-04-20 16:35 | 57.99269 | 12.92170 | 15941 ft | 349 kts | 49° |
| 2026-04-20 16:35 | 58.00901 | 12.95583 | 16644 ft | 351 kts | 48° |
| 2026-04-20 16:35 | 58.02542 | 12.99023 | 17320 ft | 354 kts | 48° |
| 2026-04-20 16:36 | 58.04194 | 13.02490 | 17960 ft | 357 kts | 48° |
| 2026-04-20 16:36 | 58.05858 | 13.05990 | 18578 ft | 360 kts | 48° |
| 2026-04-20 16:36 | 58.07537 | 13.09528 | 19108 ft | 364 kts | 48° |
| 2026-04-20 16:36 | 58.09232 | 13.13107 | 19624 ft | 366 kts | 48° |
| 2026-04-20 16:37 | 58.10938 | 13.16708 | 20157 ft | 369 kts | 48° |
| 2026-04-20 16:37 | 58.12657 | 13.20343 | 20677 ft | 372 kts | 48° |
| 2026-04-20 16:37 | 58.14387 | 13.24015 | 21201 ft | 375 kts | 49° |
| 2026-04-20 16:37 | 58.16130 | 13.27718 | 21716 ft | 378 kts | 48° |
| 2026-04-20 16:38 | 58.17882 | 13.31449 | 22217 ft | 381 kts | 49° |
| 2026-04-20 16:38 | 58.19061 | 13.34007 | 22557 ft | 383 kts | 49° |
| 2026-04-20 16:38 | 58.21370 | 13.39109 | 23208 ft | 387 kts | 50° |
| 2026-04-20 16:38 | 58.22550 | 13.41741 | 23549 ft | 389 kts | 50° |
| 2026-04-20 16:39 | 58.24305 | 13.45667 | 24006 ft | 392 kts | 50° |
| 2026-04-20 16:39 | 58.26071 | 13.49620 | 24405 ft | 394 kts | 50° |
| 2026-04-20 16:39 | 58.27854 | 13.53604 | 24809 ft | 397 kts | 50° |
| 2026-04-20 16:39 | 58.29649 | 13.57614 | 25213 ft | 399 kts | 50° |
| 2026-04-20 16:40 | 58.31451 | 13.61645 | 25583 ft | 402 kts | 50° |
| 2026-04-20 16:40 | 58.33242 | 13.65656 | 25955 ft | 404 kts | 50° |
| 2026-04-20 16:40 | 58.35092 | 13.69806 | 26356 ft | 407 kts | 51° |
| 2026-04-20 16:40 | 58.36927 | 13.73931 | 26730 ft | 409 kts | 51° |
| 2026-04-20 16:41 | 58.38745 | 13.78031 | 27102 ft | 412 kts | 51° |
| 2026-04-20 16:41 | 58.40595 | 13.82213 | 27504 ft | 414 kts | 51° |
| 2026-04-20 16:41 | 58.42458 | 13.86424 | 27884 ft | 416 kts | 51° |
| 2026-04-20 16:41 | 58.44335 | 13.90659 | 28251 ft | 418 kts | 51° |
| 2026-04-20 16:42 | 58.46215 | 13.94909 | 28604 ft | 421 kts | 51° |
| 2026-04-20 16:42 | 58.48104 | 13.99197 | 28954 ft | 423 kts | 52° |
| 2026-04-20 16:42 | 58.50002 | 14.03516 | 29305 ft | 425 kts | 52° |
| 2026-04-20 16:42 | 58.51909 | 14.07867 | 29639 ft | 427 kts | 52° |
| 2026-04-20 16:43 | 58.53819 | 14.12237 | 29997 ft | 429 kts | 52° |
| 2026-04-20 16:43 | 58.55729 | 14.16619 | 30410 ft | 428 kts | 52° |
| 2026-04-20 16:43 | 58.57635 | 14.20998 | 30793 ft | 428 kts | 52° |
| 2026-04-20 16:43 | 58.59525 | 14.25399 | 31202 ft | 426 kts | 54° |
| 2026-04-20 16:44 | 58.61135 | 14.30141 | 31593 ft | 424 kts | 61° |
| 2026-04-20 16:44 | 58.62603 | 14.35037 | 32003 ft | 423 kts | 61° |
| 2026-04-20 16:44 | 58.64067 | 14.39924 | 32398 ft | 422 kts | 61° |
| 2026-04-20 16:44 | 58.65528 | 14.44801 | 32797 ft | 421 kts | 62° |
| 2026-04-20 16:45 | 58.66986 | 14.49679 | 33205 ft | 421 kts | 62° |
| 2026-04-20 16:45 | 58.68444 | 14.54566 | 33367 ft | 419 kts | 62° |
| 2026-04-20 16:45 | 58.71305 | 14.64173 | 33390 ft | 410 kts | 62° |
| 2026-04-20 16:46 | 58.74124 | 14.73679 | 33389 ft | 409 kts | 62° |
| 2026-04-20 16:46 | 58.76931 | 14.83207 | 33390 ft | 409 kts | 62° |
| 2026-04-20 16:47 | 58.79739 | 14.92740 | 33391 ft | 409 kts | 62° |
| 2026-04-20 16:47 | 58.82540 | 15.02296 | 33390 ft | 409 kts | 62° |
| 2026-04-20 16:48 | 58.85330 | 15.11879 | 33391 ft | 409 kts | 62° |
| 2026-04-20 16:48 | 58.88110 | 15.21468 | 33389 ft | 409 kts | 62° |
| 2026-04-20 16:49 | 58.90885 | 15.31064 | 33388 ft | 409 kts | 62° |
| 2026-04-20 16:49 | 58.93651 | 15.40684 | 33394 ft | 409 kts | 62° |
| 2026-04-20 16:50 | 58.96410 | 15.50307 | 33379 ft | 408 kts | 62° |
| 2026-04-20 16:50 | 58.99162 | 15.59941 | 33383 ft | 408 kts | 63° |
| 2026-04-20 16:51 | 59.01902 | 15.69571 | 33390 ft | 408 kts | 63° |
| 2026-04-20 16:51 | 59.04638 | 15.79237 | 33388 ft | 408 kts | 63° |
| 2026-04-20 16:52 | 59.07357 | 15.88912 | 33388 ft | 408 kts | 63° |
| 2026-04-20 16:52 | 59.10076 | 15.98596 | 33389 ft | 408 kts | 63° |
| 2026-04-20 16:53 | 59.12773 | 16.08231 | 33391 ft | 408 kts | 63° |
| 2026-04-20 16:53 | 59.15481 | 16.17938 | 33391 ft | 408 kts | 63° |
| 2026-04-20 16:54 | 59.18181 | 16.27664 | 33393 ft | 408 kts | 63° |
| 2026-04-20 16:54 | 59.20863 | 16.37394 | 33396 ft | 407 kts | 63° |
| 2026-04-20 16:55 | 59.23537 | 16.47138 | 33398 ft | 407 kts | 63° |
| 2026-04-20 16:55 | 59.26202 | 16.56889 | 33398 ft | 407 kts | 63° |
| 2026-04-20 16:56 | 59.28867 | 16.66651 | 33395 ft | 407 kts | 63° |
| 2026-04-20 16:56 | 59.31511 | 16.76417 | 33395 ft | 406 kts | 63° |
| 2026-04-20 16:57 | 59.33936 | 16.86391 | 33398 ft | 405 kts | 69° |
| 2026-04-20 16:57 | 59.36087 | 16.96606 | 33376 ft | 405 kts | 68° |
| 2026-04-20 16:58 | 59.38241 | 17.06825 | 33400 ft | 406 kts | 68° |
| 2026-04-20 16:58 | 59.40382 | 17.17070 | 33405 ft | 405 kts | 68° |
| 2026-04-20 16:59 | 59.42506 | 17.27305 | 33405 ft | 405 kts | 69° |
| 2026-04-20 16:59 | 59.44628 | 17.37556 | 33401 ft | 405 kts | 69° |
| 2026-04-20 17:00 | 59.47795 | 17.52931 | 33403 ft | 404 kts | 69° |
| 2026-04-20 17:01 | 59.49888 | 17.63205 | 33403 ft | 404 kts | 69° |
| 2026-04-20 17:01 | 59.51977 | 17.73483 | 33398 ft | 404 kts | 69° |
| 2026-04-20 17:02 | 59.54061 | 17.83774 | 33406 ft | 404 kts | 69° |
| 2026-04-20 17:02 | 59.56134 | 17.94068 | 33413 ft | 404 kts | 69° |
| 2026-04-20 17:03 | 59.58194 | 18.04369 | 33412 ft | 403 kts | 69° |
| 2026-04-20 17:03 | 59.60238 | 18.14663 | 33411 ft | 403 kts | 69° |
| 2026-04-20 17:04 | 59.62264 | 18.24905 | 33411 ft | 403 kts | 69° |
| 2026-04-20 17:04 | 59.64301 | 18.35214 | 33410 ft | 403 kts | 69° |
| 2026-04-20 17:05 | 59.66325 | 18.45525 | 33405 ft | 402 kts | 69° |
| 2026-04-20 17:05 | 59.68343 | 18.55859 | 33404 ft | 402 kts | 69° |
| 2026-04-20 17:06 | 59.70348 | 18.66187 | 33425 ft | 402 kts | 69° |
| 2026-04-20 17:06 | 59.72343 | 18.76527 | 33417 ft | 401 kts | 70° |
| 2026-04-20 17:07 | 59.74315 | 18.86822 | 33425 ft | 399 kts | 70° |
| 2026-04-20 17:07 | 59.76272 | 18.97108 | 33419 ft | 398 kts | 70° |
| 2026-04-20 17:08 | 59.78224 | 19.07389 | 33415 ft | 398 kts | 70° |
| 2026-04-20 17:08 | 59.80165 | 19.17654 | 33412 ft | 397 kts | 70° |
| 2026-04-20 17:09 | 59.82102 | 19.27943 | 33398 ft | 397 kts | 70° |
| 2026-04-20 17:09 | 59.84027 | 19.38225 | 33396 ft | 397 kts | 70° |
| 2026-04-20 17:10 | 59.85940 | 19.48530 | 33396 ft | 397 kts | 70° |
| 2026-04-20 17:10 | 59.87845 | 19.58832 | 33373 ft | 397 kts | 71° |
| 2026-04-20 17:11 | 59.89745 | 19.69133 | 33385 ft | 396 kts | 71° |
| 2026-04-20 17:11 | 59.91632 | 19.79421 | 33391 ft | 395 kts | 71° |
| 2026-04-20 17:12 | 59.93507 | 19.89700 | 33394 ft | 394 kts | 71° |
| 2026-04-20 17:12 | 59.95361 | 19.99989 | 33391 ft | 394 kts | 71° |
| 2026-04-20 17:13 | 59.97210 | 20.10275 | 33387 ft | 394 kts | 71° |
| 2026-04-20 17:13 | 59.99053 | 20.20573 | 33349 ft | 394 kts | 71° |
| 2026-04-20 17:14 | 60.00889 | 20.30880 | 33394 ft | 392 kts | 72° |
| 2026-04-20 17:14 | 60.02695 | 20.41076 | 33397 ft | 392 kts | 72° |
| 2026-04-20 17:15 | 60.04505 | 20.51352 | 33396 ft | 392 kts | 72° |
| 2026-04-20 17:15 | 60.06307 | 20.61641 | 33391 ft | 392 kts | 72° |
| 2026-04-20 17:16 | 60.08106 | 20.71928 | 33393 ft | 392 kts | 72° |
| 2026-04-20 17:16 | 60.09891 | 20.82246 | 33392 ft | 392 kts | 72° |
| 2026-04-20 17:17 | 60.11664 | 20.92561 | 33390 ft | 392 kts | 72° |
| 2026-04-20 17:17 | 60.13442 | 21.02889 | 33384 ft | 392 kts | 72° |
| 2026-04-20 17:18 | 60.15208 | 21.13230 | 33402 ft | 392 kts | 72° |
| 2026-04-20 17:18 | 60.16956 | 21.23584 | 33401 ft | 391 kts | 72° |
| 2026-04-20 17:19 | 60.18705 | 21.33961 | 32762 ft | 392 kts | 72° |
| 2026-04-20 17:19 | 60.19576 | 21.39149 | 32214 ft | 392 kts | 72° |
| 2026-04-20 17:19 | 60.20389 | 21.44372 | 31683 ft | 391 kts | 77° |
| 2026-04-20 17:19 | 60.20959 | 21.49717 | 31179 ft | 391 kts | 78° |
| 2026-04-20 17:20 | 60.21524 | 21.55078 | 30674 ft | 392 kts | 78° |
| 2026-04-20 17:20 | 60.22089 | 21.60436 | 30123 ft | 392 kts | 78° |
| 2026-04-20 17:20 | 60.22653 | 21.65824 | 29541 ft | 393 kts | 78° |
| 2026-04-20 17:20 | 60.23210 | 21.71198 | 28980 ft | 391 kts | 78° |
| 2026-04-20 17:21 | 60.23763 | 21.76540 | 28420 ft | 388 kts | 78° |
| 2026-04-20 17:21 | 60.24310 | 21.81836 | 27875 ft | 385 kts | 78° |
| 2026-04-20 17:21 | 60.24853 | 21.87099 | 27337 ft | 382 kts | 78° |
| 2026-04-20 17:21 | 60.25390 | 21.92322 | 26840 ft | 380 kts | 78° |
| 2026-04-20 17:22 | 60.25922 | 21.97506 | 26323 ft | 375 kts | 78° |
| 2026-04-20 17:22 | 60.26444 | 22.02630 | 25814 ft | 372 kts | 78° |
| 2026-04-20 17:22 | 60.26958 | 22.07720 | 25320 ft | 370 kts | 78° |
| 2026-04-20 17:22 | 60.27468 | 22.12790 | 24827 ft | 368 kts | 78° |
| 2026-04-20 17:23 | 60.27972 | 22.17816 | 24346 ft | 366 kts | 78° |
| 2026-04-20 17:23 | 60.28475 | 22.22832 | 23864 ft | 364 kts | 78° |
| 2026-04-20 17:23 | 60.28973 | 22.27819 | 23294 ft | 362 kts | 78° |
| 2026-04-20 17:23 | 60.29389 | 22.32805 | 22731 ft | 361 kts | 85° |
| 2026-04-20 17:24 | 60.29316 | 22.37786 | 22198 ft | 361 kts | 91° |
| 2026-04-20 17:24 | 60.29174 | 22.42827 | 21663 ft | 359 kts | 91° |
| 2026-04-20 17:24 | 60.29025 | 22.47847 | 21141 ft | 358 kts | 91° |
| 2026-04-20 17:24 | 60.28869 | 22.52852 | 20622 ft | 357 kts | 91° |
| 2026-04-20 17:25 | 60.28711 | 22.57838 | 20104 ft | 356 kts | 91° |
| 2026-04-20 17:25 | 60.28605 | 22.61204 | 19766 ft | 355 kts | 91° |
| 2026-04-20 17:25 | 60.28450 | 22.66159 | 19275 ft | 354 kts | 91° |
| 2026-04-20 17:25 | 60.28293 | 22.71110 | 18790 ft | 353 kts | 91° |
| 2026-04-20 17:26 | 60.28134 | 22.76046 | 18260 ft | 352 kts | 91° |
| 2026-04-20 17:26 | 60.27973 | 22.80952 | 17720 ft | 350 kts | 91° |
| 2026-04-20 17:26 | 60.27816 | 22.85766 | 17182 ft | 348 kts | 91° |
| 2026-04-20 17:26 | 60.27657 | 22.90615 | 16653 ft | 346 kts | 91° |
| 2026-04-20 17:27 | 60.27496 | 22.95431 | 16138 ft | 343 kts | 91° |
| 2026-04-20 17:27 | 60.27333 | 23.00211 | 15629 ft | 341 kts | 91° |
| 2026-04-20 17:27 | 60.27171 | 23.04968 | 15127 ft | 339 kts | 91° |
| 2026-04-20 17:27 | 60.27009 | 23.09686 | 14630 ft | 337 kts | 91° |
| 2026-04-20 17:28 | 60.26845 | 23.14370 | 14143 ft | 335 kts | 91° |
| 2026-04-20 17:28 | 60.26678 | 23.19037 | 13601 ft | 333 kts | 91° |
| 2026-04-20 17:28 | 60.26510 | 23.23674 | 13063 ft | 330 kts | 91° |
| 2026-04-20 17:28 | 60.26342 | 23.28275 | 12534 ft | 328 kts | 91° |
| 2026-04-20 17:29 | 60.26176 | 23.32840 | 12017 ft | 326 kts | 91° |
| 2026-04-20 17:29 | 60.26013 | 23.37368 | 11503 ft | 319 kts | 91° |
| 2026-04-20 17:29 | 60.25852 | 23.41685 | 11000 ft | 299 kts | 91° |
| 2026-04-20 17:29 | 60.25698 | 23.45752 | 10506 ft | 285 kts | 91° |
| 2026-04-20 17:30 | 60.25548 | 23.49691 | 10321 ft | 282 kts | 91° |
| 2026-04-20 17:30 | 60.25398 | 23.53634 | 10324 ft | 282 kts | 91° |
| 2026-04-20 17:30 | 60.25246 | 23.57561 | 10320 ft | 281 kts | 91° |
| 2026-04-20 17:30 | 60.25095 | 23.61479 | 10325 ft | 281 kts | 91° |
| 2026-04-20 17:31 | 60.24943 | 23.65403 | 10328 ft | 281 kts | 91° |
| 2026-04-20 17:31 | 60.24790 | 23.69330 | 10312 ft | 281 kts | 91° |
| 2026-04-20 17:31 | 60.24636 | 23.73259 | 10320 ft | 281 kts | 91° |
| 2026-04-20 17:31 | 60.24480 | 23.77178 | 10320 ft | 281 kts | 91° |
| 2026-04-20 17:32 | 60.24322 | 23.81103 | 10320 ft | 281 kts | 91° |
| 2026-04-20 17:32 | 60.24162 | 23.85024 | 10320 ft | 281 kts | 91° |
| 2026-04-20 17:32 | 60.24002 | 23.88948 | 10320 ft | 281 kts | 91° |
| 2026-04-20 17:32 | 60.23840 | 23.92879 | 10057 ft | 284 kts | 91° |
| 2026-04-20 17:33 | 60.23679 | 23.96774 | 9515 ft | 285 kts | 91° |
| 2026-04-20 17:33 | 60.23514 | 24.00739 | 8979 ft | 283 kts | 91° |
| 2026-04-20 17:33 | 60.23352 | 24.04614 | 8444 ft | 271 kts | 92° |
| 2026-04-20 17:33 | 60.23195 | 24.08297 | 7943 ft | 258 kts | 91° |
| 2026-04-20 17:34 | 60.23043 | 24.11834 | 7435 ft | 250 kts | 91° |
| 2026-04-20 17:34 | 60.22895 | 24.15283 | 6805 ft | 246 kts | 91° |
| 2026-04-20 17:34 | 60.22751 | 24.18677 | 6390 ft | 244 kts | 91° |
| 2026-04-20 17:34 | 60.22607 | 24.22103 | 6299 ft | 246 kts | 92° |
| 2026-04-20 17:35 | 60.22460 | 24.25544 | 6209 ft | 249 kts | 92° |
| 2026-04-20 17:35 | 60.22309 | 24.28978 | 6004 ft | 245 kts | 92° |
| 2026-04-20 17:35 | 60.22158 | 24.32401 | 5984 ft | 245 kts | 92° |
| 2026-04-20 17:35 | 60.22006 | 24.35803 | 5685 ft | 242 kts | 92° |
| 2026-04-20 17:36 | 60.21857 | 24.39096 | 5552 ft | 231 kts | 92° |
| 2026-04-20 17:36 | 60.21713 | 24.42261 | 5375 ft | 225 kts | 92° |
| 2026-04-20 17:36 | 60.21575 | 24.45370 | 5086 ft | 223 kts | 91° |
| 2026-04-20 17:36 | 60.21438 | 24.48455 | 4779 ft | 218 kts | 91° |
| 2026-04-20 17:37 | 60.21299 | 24.51411 | 4577 ft | 209 kts | 91° |
| 2026-04-20 17:37 | 60.21160 | 24.54404 | 3946 ft | 220 kts | 91° |
| 2026-04-20 17:37 | 60.21018 | 24.57472 | 3269 ft | 220 kts | 91° |
| 2026-04-20 17:37 | 60.20876 | 24.60538 | 2641 ft | 217 kts | 91° |
| 2026-04-20 17:38 | 60.20740 | 24.63448 | 2340 ft | 205 kts | 91° |
| 2026-04-20 17:38 | 60.20815 | 24.66218 | 2316 ft | 194 kts | 72° |
| 2026-04-20 17:38 | 60.21364 | 24.68616 | 2309 ft | 188 kts | 52° |
| 2026-04-20 17:38 | 60.22220 | 24.70567 | 2313 ft | 185 kts | 45° |
| 2026-04-20 17:39 | 60.23094 | 24.72462 | 2307 ft | 185 kts | 45° |
| 2026-04-20 17:39 | 60.23940 | 24.74303 | 2269 ft | 168 kts | 45° |
| 2026-04-20 17:39 | 60.24651 | 24.75917 | 2108 ft | 145 kts | 44° |
| 2026-04-20 17:39 | 60.25323 | 24.77351 | 1914 ft | 137 kts | 44° |
| 2026-04-20 17:40 | 60.25964 | 24.78733 | 1736 ft | 134 kts | 45° |
| 2026-04-20 17:40 | 60.26592 | 24.80096 | 1556 ft | 132 kts | 45° |
| 2026-04-20 17:40 | 60.27213 | 24.81449 | 1378 ft | 131 kts | 45° |
| 2026-04-20 17:40 | 60.27830 | 24.82797 | 1192 ft | 131 kts | 45° |
| 2026-04-20 17:41 | 60.28451 | 24.84153 | 1009 ft | 132 kts | 45° |
| 2026-04-20 17:41 | 60.29072 | 24.85513 | 821 ft | 132 kts | 46° |
| 2026-04-20 17:41 | 60.29702 | 24.86892 | 653 ft | 135 kts | 46° |
| 2026-04-20 17:41 | 60.30338 | 24.88296 | 476 ft | 135 kts | 45° |
| 2026-04-20 17:42 | 60.30976 | 24.89678 | 282 ft | 134 kts | 45° |
| 2026-04-20 17:42 | 60.31598 | 24.91056 | 159 ft | 128 kts | 44° |
| 2026-04-20 17:42 | 60.32107 | 24.92169 | 166 ft | 60 kts | 48° |
| 2026-04-20 17:42 | 60.32180 | 24.92375 | 170 ft | 7 kts | 62° |
| 2026-04-20 17:43 | 60.32227 | 24.92627 | 172 ft | 28 kts | 70° |
| 2026-04-20 17:43 | 60.32250 | 24.92775 | 172 ft | 1 kts | 84° |
| 2026-04-20 17:43 | 60.32252 | 24.92801 | 172 ft | 0 kts | 83° |
| 2026-04-20 17:43 | 60.32255 | 24.92830 | 172 ft | 7 kts | 75° |
| 2026-04-20 17:44 | 60.32261 | 24.92876 | 173 ft | 0 kts | 77° |
| 2026-04-20 17:44 | 60.32265 | 24.92917 | 173 ft | 10 kts | 78° |
| 2026-04-20 17:45 | 60.32274 | 24.93078 | 173 ft | 11 kts | 107° |
| 2026-04-20 17:45 | 60.32239 | 24.93210 | 173 ft | 10 kts | 97° |
| 2026-04-20 17:45 | 60.32270 | 24.93325 | 173 ft | 9 kts | 49° |
| 2026-04-20 17:45 | 60.32334 | 24.93469 | 175 ft | 20 kts | 48° |
| 2026-04-20 17:46 | 60.32443 | 24.93704 | 177 ft | 23 kts | 47° |
| 2026-04-20 17:46 | 60.32549 | 24.93942 | 179 ft | 22 kts | 47° |
| 2026-04-20 17:46 | 60.32651 | 24.94168 | 181 ft | 21 kts | 47° |
| 2026-04-20 17:46 | 60.32749 | 24.94386 | 183 ft | 21 kts | 47° |
| 2026-04-20 17:47 | 60.32845 | 24.94593 | 188 ft | 20 kts | 46° |
| 2026-04-20 17:47 | 60.32937 | 24.94795 | 191 ft | 19 kts | 49° |
| 2026-04-20 17:47 | 60.33032 | 24.94997 | 182 ft | 21 kts | 47° |
| 2026-04-20 17:47 | 60.33130 | 24.95217 | 176 ft | 20 kts | 46° |
| 2026-04-20 17:48 | 60.33203 | 24.95402 | 169 ft | 17 kts | 67° |
| 2026-04-20 17:48 | 60.33156 | 24.95606 | 162 ft | 17 kts | 133° |
| 2026-04-20 17:48 | 60.33057 | 24.95769 | 156 ft | 19 kts | 158° |
| 2026-04-20 17:48 | 60.32949 | 24.95922 | 153 ft | 19 kts | 146° |
| 2026-04-20 17:49 | 60.32837 | 24.96043 | 155 ft | 17 kts | 150° |
| 2026-04-20 17:49 | 60.32750 | 24.96144 | 159 ft | 13 kts | 150° |
| 2026-04-20 17:49 | 60.32720 | 24.96179 | 160 ft | 11 kts | 149° |
| 2026-04-20 17:49 | 60.32633 | 24.96281 | 163 ft | 21 kts | 150° |
| 2026-04-20 17:50 | 60.32469 | 24.96477 | 164 ft | 34 kts | 150° |
| 2026-04-20 17:50 | 60.32304 | 24.96665 | 167 ft | 19 kts | 150° |
| 2026-04-20 17:50 | 60.32234 | 24.96756 | 168 ft | 3 kts | 144° |
| 2026-04-20 17:50 | 60.32216 | 24.96776 | 169 ft | 8 kts | 153° |
| 2026-04-20 17:51 | 60.32141 | 24.96857 | 170 ft | 13 kts | 150° |
| 2026-04-20 17:51 | 60.32130 | 24.96869 | 170 ft | 0 kts | 150° |
| 2026-04-20 17:51 | 60.32104 | 24.96899 | 171 ft | 10 kts | 151° |
| 2026-04-20 17:51 | 60.32036 | 24.96974 | 172 ft | 10 kts | 153° |
| 2026-04-20 17:52 | 60.31981 | 24.97002 | 172 ft | 7 kts | 197° |
| 2026-04-20 17:52 | 60.31954 | 24.96950 | 172 ft | 2 kts | 244° |
| 2026-04-20 17:52 | 60.31952 | 24.96942 | 172 ft | 0 kts | 243° |